sensor_id;sensor_type;location;lat;lon;timestamp;P1;durP1;ratioP1;P2;durP2;ratioP2
65189;SDS011;51777;53.570;9.984;2023-03-01T00:00:14;11.77;;;5.78;;
65189;SDS011;51777;53.570;9.984;2023-03-01T00:02:39;12.13;;;5.95;;
65189;SDS011;51777;53.570;9.984;2023-03-01T00:05:05;12.55;;;6.07;;
65189;SDS011;51777;53.570;9.984;2023-03-01T00:07:32;11.23;;;6.13;;
65189;SDS011;51777;53.570;9.984;2023-03-01T00:09:58;11.57;;;6.18;;
65189;SDS011;51777;53.570;9.984;2023-03-01T00:12:23;12.48;;;6.20;;
65189;SDS011;51777;53.570;9.984;2023-03-01T00:14:48;10.43;;;6.30;;
65189;SDS011;51777;53.570;9.984;2023-03-01T00:17:14;11.10;;;5.72;;
65189;SDS011;51777;53.570;9.984;2023-03-01T00:19:39;10.95;;;5.80;;
65189;SDS011;51777;53.570;9.984;2023-03-01T00:22:05;10.55;;;5.90;;
65189;SDS011;51777;53.570;9.984;2023-03-01T00:24:30;11.23;;;6.45;;
65189;SDS011;51777;53.570;9.984;2023-03-01T00:26:56;15.45;;;5.90;;
65189;SDS011;51777;53.570;9.984;2023-03-01T00:29:22;11.10;;;5.50;;
65189;SDS011;51777;53.570;9.984;2023-03-01T00:31:49;13.85;;;6.10;;
65189;SDS011;51777;53.570;9.984;2023-03-01T00:34:14;8.05;;;4.72;;
65189;SDS011;51777;53.570;9.984;2023-03-01T00:36:40;9.50;;;5.47;;
65189;SDS011;51777;53.570;9.984;2023-03-01T00:39:07;10.07;;;4.70;;
65189;SDS011;51777;53.570;9.984;2023-03-01T00:41:36;10.07;;;5.05;;
65189;SDS011;51777;53.570;9.984;2023-03-01T00:44:01;8.73;;;5.00;;
65189;SDS011;51777;53.570;9.984;2023-03-01T00:46:27;9.25;;;5.43;;
65189;SDS011;51777;53.570;9.984;2023-03-01T00:48:55;9.68;;;5.22;;
65189;SDS011;51777;53.570;9.984;2023-03-01T00:51:22;12.50;;;6.07;;
65189;SDS011;51777;53.570;9.984;2023-03-01T00:53:51;9.90;;;5.78;;
65189;SDS011;51777;53.570;9.984;2023-03-01T00:56:17;11.13;;;5.38;;
65189;SDS011;51777;53.570;9.984;2023-03-01T00:58:43;11.32;;;6.10;;
65189;SDS011;51777;53.570;9.984;2023-03-01T01:01:09;10.05;;;5.72;;
65189;SDS011;51777;53.570;9.984;2023-03-01T01:03:42;10.57;;;4.90;;
65189;SDS011;51777;53.570;9.984;2023-03-01T01:06:15;7.53;;;4.78;;
65189;SDS011;51777;53.570;9.984;2023-03-01T01:08:43;8.60;;;5.20;;
65189;SDS011;51777;53.570;9.984;2023-03-01T01:11:10;8.70;;;4.65;;
65189;SDS011;51777;53.570;9.984;2023-03-01T01:13:36;8.55;;;4.50;;
65189;SDS011;51777;53.570;9.984;2023-03-01T01:16:02;7.90;;;4.35;;
65189;SDS011;51777;53.570;9.984;2023-03-01T01:18:28;9.85;;;5.07;;
65189;SDS011;51777;53.570;9.984;2023-03-01T01:20:53;7.47;;;4.70;;
65189;SDS011;51777;53.570;9.984;2023-03-01T01:23:18;10.38;;;4.88;;
65189;SDS011;51777;53.570;9.984;2023-03-01T01:25:44;7.72;;;4.30;;
65189;SDS011;51777;53.570;9.984;2023-03-01T01:28:09;8.45;;;4.40;;
65189;SDS011;51777;53.570;9.984;2023-03-01T01:30:34;7.78;;;4.70;;
65189;SDS011;51777;53.570;9.984;2023-03-01T01:33:00;8.98;;;4.65;;
65189;SDS011;51777;53.570;9.984;2023-03-01T01:35:27;7.82;;;4.20;;
65189;SDS011;51777;53.570;9.984;2023-03-01T01:37:52;6.43;;;4.50;;
65189;SDS011;51777;53.570;9.984;2023-03-01T01:40:17;8.80;;;4.07;;
65189;SDS011;51777;53.570;9.984;2023-03-01T01:42:43;8.55;;;4.63;;
65189;SDS011;51777;53.570;9.984;2023-03-01T01:45:29;7.43;;;4.18;;
65189;SDS011;51777;53.570;9.984;2023-03-01T01:48:06;9.25;;;4.13;;
65189;SDS011;51777;53.570;9.984;2023-03-01T01:50:35;8.30;;;4.60;;
65189;SDS011;51777;53.570;9.984;2023-03-01T01:53:12;6.32;;;4.38;;
65189;SDS011;51777;53.570;9.984;2023-03-01T01:55:42;7.82;;;4.22;;
65189;SDS011;51777;53.570;9.984;2023-03-01T01:58:14;7.85;;;4.22;;
65189;SDS011;51777;53.570;9.984;2023-03-01T02:00:42;7.13;;;4.35;;
65189;SDS011;51777;53.570;9.984;2023-03-01T02:03:12;7.97;;;4.00;;
65189;SDS011;51777;53.570;9.984;2023-03-01T02:08:21;11.90;;;3.90;;
65189;SDS011;51777;53.570;9.984;2023-03-01T02:10:50;7.05;;;4.20;;
65189;SDS011;51777;53.570;9.984;2023-03-01T02:13:17;7.65;;;4.07;;
65189;SDS011;51777;53.570;9.984;2023-03-01T02:15:43;7.43;;;4.30;;
65189;SDS011;51777;53.570;9.984;2023-03-01T02:18:12;7.70;;;4.25;;
65189;SDS011;51777;53.570;9.984;2023-03-01T02:23:14;8.65;;;4.50;;
65189;SDS011;51777;53.570;9.984;2023-03-01T02:25:54;6.70;;;4.28;;
65189;SDS011;51777;53.570;9.984;2023-03-01T02:28:22;9.15;;;4.00;;
65189;SDS011;51777;53.570;9.984;2023-03-01T02:30:58;6.35;;;4.07;;
65189;SDS011;51777;53.570;9.984;2023-03-01T02:33:42;5.53;;;4.00;;
65189;SDS011;51777;53.570;9.984;2023-03-01T02:36:10;7.80;;;4.32;;
65189;SDS011;51777;53.570;9.984;2023-03-01T02:38:41;9.90;;;4.22;;
65189;SDS011;51777;53.570;9.984;2023-03-01T02:41:09;6.15;;;4.28;;
65189;SDS011;51777;53.570;9.984;2023-03-01T02:43:38;6.10;;;4.10;;
65189;SDS011;51777;53.570;9.984;2023-03-01T02:46:08;8.15;;;4.68;;
65189;SDS011;51777;53.570;9.984;2023-03-01T02:48:40;7.13;;;4.70;;
65189;SDS011;51777;53.570;9.984;2023-03-01T02:51:11;10.23;;;5.78;;
65189;SDS011;51777;53.570;9.984;2023-03-01T02:54:07;9.77;;;5.35;;
65189;SDS011;51777;53.570;9.984;2023-03-01T02:56:35;8.88;;;5.57;;
65189;SDS011;51777;53.570;9.984;2023-03-01T02:59:01;10.70;;;5.45;;
65189;SDS011;51777;53.570;9.984;2023-03-01T03:01:28;12.05;;;5.45;;
65189;SDS011;51777;53.570;9.984;2023-03-01T03:04:06;10.23;;;5.43;;
65189;SDS011;51777;53.570;9.984;2023-03-01T03:06:34;9.90;;;5.25;;
65189;SDS011;51777;53.570;9.984;2023-03-01T03:09:00;9.25;;;5.30;;
65189;SDS011;51777;53.570;9.984;2023-03-01T03:11:26;8.13;;;5.03;;
65189;SDS011;51777;53.570;9.984;2023-03-01T03:13:52;11.63;;;5.40;;
65189;SDS011;51777;53.570;9.984;2023-03-01T03:16:18;8.02;;;4.53;;
65189;SDS011;51777;53.570;9.984;2023-03-01T03:18:44;13.77;;;5.28;;
65189;SDS011;51777;53.570;9.984;2023-03-01T03:21:11;12.75;;;5.65;;
65189;SDS011;51777;53.570;9.984;2023-03-01T03:23:37;7.85;;;4.85;;
65189;SDS011;51777;53.570;9.984;2023-03-01T03:26:03;8.52;;;4.80;;
65189;SDS011;51777;53.570;9.984;2023-03-01T03:28:30;7.63;;;4.65;;
65189;SDS011;51777;53.570;9.984;2023-03-01T03:30:59;7.32;;;4.45;;
65189;SDS011;51777;53.570;9.984;2023-03-01T03:33:31;8.27;;;4.78;;
65189;SDS011;51777;53.570;9.984;2023-03-01T03:35:57;8.48;;;4.47;;
65189;SDS011;51777;53.570;9.984;2023-03-01T03:38:23;11.65;;;5.30;;
65189;SDS011;51777;53.570;9.984;2023-03-01T03:40:50;7.03;;;4.30;;
65189;SDS011;51777;53.570;9.984;2023-03-01T03:43:18;8.25;;;4.50;;
65189;SDS011;51777;53.570;9.984;2023-03-01T03:45:47;8.48;;;4.57;;
65189;SDS011;51777;53.570;9.984;2023-03-01T03:48:14;6.47;;;3.88;;
65189;SDS011;51777;53.570;9.984;2023-03-01T03:50:40;9.18;;;4.00;;
65189;SDS011;51777;53.570;9.984;2023-03-01T03:53:07;7.10;;;4.47;;
65189;SDS011;51777;53.570;9.984;2023-03-01T03:55:35;8.35;;;4.40;;
65189;SDS011;51777;53.570;9.984;2023-03-01T03:58:06;7.25;;;3.92;;
65189;SDS011;51777;53.570;9.984;2023-03-01T04:00:38;8.15;;;4.35;;
65189;SDS011;51777;53.570;9.984;2023-03-01T04:03:08;8.90;;;4.07;;
65189;SDS011;51777;53.570;9.984;2023-03-01T04:05:36;6.45;;;3.92;;
65189;SDS011;51777;53.570;9.984;2023-03-01T04:08:02;6.20;;;3.85;;
65189;SDS011;51777;53.570;9.984;2023-03-01T04:10:34;5.70;;;4.00;;
65189;SDS011;51777;53.570;9.984;2023-03-01T04:13:02;5.15;;;3.70;;
65189;SDS011;51777;53.570;9.984;2023-03-01T04:15:28;6.20;;;3.95;;
65189;SDS011;51777;53.570;9.984;2023-03-01T04:17:55;7.38;;;3.70;;
65189;SDS011;51777;53.570;9.984;2023-03-01T04:20:25;7.55;;;4.40;;
65189;SDS011;51777;53.570;9.984;2023-03-01T04:25:41;5.40;;;3.47;;
65189;SDS011;51777;53.570;9.984;2023-03-01T04:28:10;6.70;;;4.30;;
65189;SDS011;51777;53.570;9.984;2023-03-01T04:30:37;12.18;;;4.28;;
65189;SDS011;51777;53.570;9.984;2023-03-01T04:33:07;7.38;;;4.15;;
65189;SDS011;51777;53.570;9.984;2023-03-01T04:35:34;7.13;;;4.18;;
65189;SDS011;51777;53.570;9.984;2023-03-01T04:38:00;6.78;;;3.90;;
65189;SDS011;51777;53.570;9.984;2023-03-01T04:40:26;7.18;;;4.22;;
65189;SDS011;51777;53.570;9.984;2023-03-01T04:42:52;7.03;;;4.07;;
65189;SDS011;51777;53.570;9.984;2023-03-01T04:45:17;10.32;;;4.95;;
65189;SDS011;51777;53.570;9.984;2023-03-01T04:47:43;7.13;;;3.88;;
65189;SDS011;51777;53.570;9.984;2023-03-01T04:50:12;8.00;;;3.65;;
65189;SDS011;51777;53.570;9.984;2023-03-01T04:52:39;7.30;;;3.80;;
65189;SDS011;51777;53.570;9.984;2023-03-01T04:55:04;10.85;;;3.63;;
65189;SDS011;51777;53.570;9.984;2023-03-01T04:57:31;7.43;;;3.72;;
65189;SDS011;51777;53.570;9.984;2023-03-01T04:59:57;11.82;;;3.85;;
65189;SDS011;51777;53.570;9.984;2023-03-01T05:02:22;5.95;;;3.80;;
65189;SDS011;51777;53.570;9.984;2023-03-01T05:04:48;6.07;;;3.70;;
65189;SDS011;51777;53.570;9.984;2023-03-01T05:07:13;7.68;;;4.15;;
65189;SDS011;51777;53.570;9.984;2023-03-01T05:09:45;7.15;;;4.13;;
65189;SDS011;51777;53.570;9.984;2023-03-01T05:12:11;6.07;;;4.00;;
65189;SDS011;51777;53.570;9.984;2023-03-01T05:14:36;9.20;;;4.18;;
65189;SDS011;51777;53.570;9.984;2023-03-01T05:17:03;8.50;;;4.22;;
65189;SDS011;51777;53.570;9.984;2023-03-01T05:19:29;6.32;;;4.00;;
65189;SDS011;51777;53.570;9.984;2023-03-01T05:21:55;9.05;;;4.32;;
65189;SDS011;51777;53.570;9.984;2023-03-01T05:24:29;6.38;;;4.05;;
65189;SDS011;51777;53.570;9.984;2023-03-01T05:26:56;15.40;;;4.53;;
65189;SDS011;51777;53.570;9.984;2023-03-01T05:29:22;6.72;;;3.97;;
65189;SDS011;51777;53.570;9.984;2023-03-01T05:31:53;10.65;;;4.32;;
65189;SDS011;51777;53.570;9.984;2023-03-01T05:34:26;8.45;;;4.78;;
65189;SDS011;51777;53.570;9.984;2023-03-01T05:36:53;10.25;;;4.55;;
65189;SDS011;51777;53.570;9.984;2023-03-01T05:39:20;8.57;;;4.53;;
65189;SDS011;51777;53.570;9.984;2023-03-01T05:41:47;11.32;;;4.53;;
65189;SDS011;51777;53.570;9.984;2023-03-01T05:44:13;6.57;;;4.18;;
65189;SDS011;51777;53.570;9.984;2023-03-01T05:46:38;6.20;;;4.18;;
65189;SDS011;51777;53.570;9.984;2023-03-01T05:49:04;13.45;;;5.38;;
65189;SDS011;51777;53.570;9.984;2023-03-01T05:51:30;9.52;;;5.80;;
65189;SDS011;51777;53.570;9.984;2023-03-01T05:53:55;16.00;;;6.07;;
65189;SDS011;51777;53.570;9.984;2023-03-01T05:56:21;10.55;;;6.07;;
65189;SDS011;51777;53.570;9.984;2023-03-01T05:58:50;11.25;;;5.97;;
65189;SDS011;51777;53.570;9.984;2023-03-01T06:01:15;11.18;;;6.10;;
65189;SDS011;51777;53.570;9.984;2023-03-01T06:03:41;22.70;;;5.40;;
65189;SDS011;51777;53.570;9.984;2023-03-01T06:06:06;8.82;;;4.80;;
65189;SDS011;51777;53.570;9.984;2023-03-01T06:08:31;8.20;;;3.97;;
65189;SDS011;51777;53.570;9.984;2023-03-01T06:10:57;11.65;;;4.32;;
65189;SDS011;51777;53.570;9.984;2023-03-01T06:13:23;6.43;;;4.40;;
65189;SDS011;51777;53.570;9.984;2023-03-01T06:15:49;9.13;;;3.90;;
65189;SDS011;51777;53.570;9.984;2023-03-01T06:18:15;8.20;;;3.90;;
65189;SDS011;51777;53.570;9.984;2023-03-01T06:20:40;7.40;;;4.00;;
65189;SDS011;51777;53.570;9.984;2023-03-01T06:23:05;7.72;;;3.55;;
65189;SDS011;51777;53.570;9.984;2023-03-01T06:25:31;6.70;;;3.80;;
65189;SDS011;51777;53.570;9.984;2023-03-01T06:27:57;15.60;;;4.18;;
65189;SDS011;51777;53.570;9.984;2023-03-01T06:30:23;8.90;;;4.40;;
65189;SDS011;51777;53.570;9.984;2023-03-01T06:32:50;23.08;;;4.03;;
65189;SDS011;51777;53.570;9.984;2023-03-01T06:35:17;10.93;;;4.95;;
65189;SDS011;51777;53.570;9.984;2023-03-01T06:37:43;11.18;;;4.03;;
65189;SDS011;51777;53.570;9.984;2023-03-01T06:40:10;9.57;;;4.35;;
65189;SDS011;51777;53.570;9.984;2023-03-01T06:42:37;16.48;;;4.75;;
65189;SDS011;51777;53.570;9.984;2023-03-01T06:45:04;26.05;;;4.47;;
65189;SDS011;51777;53.570;9.984;2023-03-01T06:47:31;8.90;;;4.28;;
65189;SDS011;51777;53.570;9.984;2023-03-01T06:49:58;9.95;;;4.05;;
65189;SDS011;51777;53.570;9.984;2023-03-01T06:52:24;12.80;;;4.03;;
65189;SDS011;51777;53.570;9.984;2023-03-01T06:54:50;12.02;;;4.40;;
65189;SDS011;51777;53.570;9.984;2023-03-01T06:57:15;10.55;;;4.00;;
65189;SDS011;51777;53.570;9.984;2023-03-01T06:59:40;10.05;;;4.13;;
65189;SDS011;51777;53.570;9.984;2023-03-01T07:02:06;9.65;;;4.45;;
65189;SDS011;51777;53.570;9.984;2023-03-01T07:04:34;6.60;;;4.38;;
65189;SDS011;51777;53.570;9.984;2023-03-01T07:07:00;19.60;;;4.68;;
65189;SDS011;51777;53.570;9.984;2023-03-01T07:09:26;10.00;;;4.22;;
65189;SDS011;51777;53.570;9.984;2023-03-01T07:11:51;9.45;;;4.50;;
65189;SDS011;51777;53.570;9.984;2023-03-01T07:14:17;9.15;;;4.82;;
65189;SDS011;51777;53.570;9.984;2023-03-01T07:16:42;11.48;;;4.75;;
65189;SDS011;51777;53.570;9.984;2023-03-01T07:19:08;9.57;;;4.72;;
65189;SDS011;51777;53.570;9.984;2023-03-01T07:21:33;14.25;;;4.70;;
65189;SDS011;51777;53.570;9.984;2023-03-01T07:23:58;8.38;;;5.03;;
65189;SDS011;51777;53.570;9.984;2023-03-01T07:26:24;16.30;;;5.32;;
65189;SDS011;51777;53.570;9.984;2023-03-01T07:28:49;21.17;;;5.22;;
65189;SDS011;51777;53.570;9.984;2023-03-01T07:31:15;8.73;;;4.45;;
65189;SDS011;51777;53.570;9.984;2023-03-01T07:33:40;14.93;;;5.00;;
65189;SDS011;51777;53.570;9.984;2023-03-01T07:36:06;19.00;;;5.30;;
65189;SDS011;51777;53.570;9.984;2023-03-01T07:38:32;11.75;;;5.60;;
65189;SDS011;51777;53.570;9.984;2023-03-01T07:40:58;12.73;;;5.50;;
65189;SDS011;51777;53.570;9.984;2023-03-01T07:43:25;15.88;;;5.43;;
65189;SDS011;51777;53.570;9.984;2023-03-01T07:45:51;14.93;;;5.53;;
65189;SDS011;51777;53.570;9.984;2023-03-01T07:48:16;11.65;;;6.28;;
65189;SDS011;51777;53.570;9.984;2023-03-01T07:50:42;11.63;;;6.85;;
65189;SDS011;51777;53.570;9.984;2023-03-01T07:53:08;13.80;;;7.05;;
65189;SDS011;51777;53.570;9.984;2023-03-01T07:55:34;13.38;;;7.13;;
65189;SDS011;51777;53.570;9.984;2023-03-01T07:57:59;14.52;;;7.05;;
65189;SDS011;51777;53.570;9.984;2023-03-01T08:00:25;19.88;;;7.50;;
65189;SDS011;51777;53.570;9.984;2023-03-01T08:02:50;18.77;;;7.10;;
65189;SDS011;51777;53.570;9.984;2023-03-01T08:05:16;19.17;;;7.55;;
65189;SDS011;51777;53.570;9.984;2023-03-01T08:07:42;10.98;;;7.18;;
65189;SDS011;51777;53.570;9.984;2023-03-01T08:10:08;16.67;;;7.32;;
65189;SDS011;51777;53.570;9.984;2023-03-01T08:12:34;19.83;;;7.03;;
65189;SDS011;51777;53.570;9.984;2023-03-01T08:15:00;20.23;;;7.05;;
65189;SDS011;51777;53.570;9.984;2023-03-01T08:17:28;16.83;;;7.55;;
65189;SDS011;51777;53.570;9.984;2023-03-01T08:19:54;11.57;;;7.13;;
65189;SDS011;51777;53.570;9.984;2023-03-01T08:22:20;16.30;;;7.72;;
65189;SDS011;51777;53.570;9.984;2023-03-01T08:24:47;14.73;;;7.65;;
65189;SDS011;51777;53.570;9.984;2023-03-01T08:27:12;18.58;;;8.18;;
65189;SDS011;51777;53.570;9.984;2023-03-01T08:29:40;14.55;;;7.88;;
65189;SDS011;51777;53.570;9.984;2023-03-01T08:32:05;15.80;;;9.30;;
65189;SDS011;51777;53.570;9.984;2023-03-01T08:34:31;21.33;;;8.68;;
65189;SDS011;51777;53.570;9.984;2023-03-01T08:36:56;15.27;;;9.10;;
65189;SDS011;51777;53.570;9.984;2023-03-01T08:39:22;19.52;;;9.07;;
65189;SDS011;51777;53.570;9.984;2023-03-01T08:41:48;15.95;;;9.50;;
65189;SDS011;51777;53.570;9.984;2023-03-01T08:44:14;22.23;;;9.55;;
65189;SDS011;51777;53.570;9.984;2023-03-01T08:46:43;19.52;;;10.52;;
65189;SDS011;51777;53.570;9.984;2023-03-01T08:49:13;17.77;;;10.43;;
65189;SDS011;51777;53.570;9.984;2023-03-01T08:51:41;16.33;;;9.70;;
65189;SDS011;51777;53.570;9.984;2023-03-01T08:54:09;17.23;;;9.60;;
65189;SDS011;51777;53.570;9.984;2023-03-01T08:56:37;15.73;;;8.98;;
65189;SDS011;51777;53.570;9.984;2023-03-01T08:59:03;17.80;;;9.38;;
65189;SDS011;51777;53.570;9.984;2023-03-01T09:01:29;16.95;;;9.35;;
65189;SDS011;51777;53.570;9.984;2023-03-01T09:03:54;19.70;;;9.02;;
65189;SDS011;51777;53.570;9.984;2023-03-01T09:06:20;19.55;;;9.90;;
65189;SDS011;51777;53.570;9.984;2023-03-01T09:08:47;17.83;;;9.88;;
65189;SDS011;51777;53.570;9.984;2023-03-01T09:11:16;18.55;;;10.45;;
65189;SDS011;51777;53.570;9.984;2023-03-01T09:13:43;17.00;;;10.05;;
65189;SDS011;51777;53.570;9.984;2023-03-01T09:16:10;18.23;;;10.25;;
65189;SDS011;51777;53.570;9.984;2023-03-01T09:18:37;16.98;;;10.27;;
65189;SDS011;51777;53.570;9.984;2023-03-01T09:23:32;19.50;;;10.30;;
65189;SDS011;51777;53.570;9.984;2023-03-01T09:25:59;20.88;;;10.50;;
65189;SDS011;51777;53.570;9.984;2023-03-01T09:28:24;17.58;;;10.73;;
65189;SDS011;51777;53.570;9.984;2023-03-01T09:30:50;21.92;;;11.18;;
65189;SDS011;51777;53.570;9.984;2023-03-01T09:33:15;20.20;;;11.55;;
65189;SDS011;51777;53.570;9.984;2023-03-01T09:35:41;27.95;;;12.40;;
65189;SDS011;51777;53.570;9.984;2023-03-01T09:38:11;18.25;;;11.23;;
65189;SDS011;51777;53.570;9.984;2023-03-01T09:40:41;23.20;;;11.10;;
65189;SDS011;51777;53.570;9.984;2023-03-01T09:43:31;18.33;;;12.15;;
65189;SDS011;51777;53.570;9.984;2023-03-01T09:46:09;16.67;;;10.82;;
65189;SDS011;51777;53.570;9.984;2023-03-01T09:48:41;16.00;;;11.10;;
65189;SDS011;51777;53.570;9.984;2023-03-01T09:51:12;15.82;;;10.43;;
65189;SDS011;51777;53.570;9.984;2023-03-01T09:53:44;15.63;;;10.38;;
65189;SDS011;51777;53.570;9.984;2023-03-01T09:56:30;18.50;;;10.27;;
65189;SDS011;51777;53.570;9.984;2023-03-01T10:05:09;17.13;;;9.93;;
65189;SDS011;51777;53.570;9.984;2023-03-01T10:10:36;22.20;;;10.18;;
65189;SDS011;51777;53.570;9.984;2023-03-01T10:13:06;14.07;;;9.32;;
65189;SDS011;51777;53.570;9.984;2023-03-01T10:15:44;19.05;;;9.02;;
65189;SDS011;51777;53.570;9.984;2023-03-01T10:18:21;19.27;;;8.85;;
65189;SDS011;51777;53.570;9.984;2023-03-01T10:23:23;17.50;;;8.40;;
65189;SDS011;51777;53.570;9.984;2023-03-01T10:31:20;14.30;;;8.85;;
65189;SDS011;51777;53.570;9.984;2023-03-01T10:33:53;16.48;;;8.70;;
65189;SDS011;51777;53.570;9.984;2023-03-01T10:36:20;10.85;;;8.50;;
65189;SDS011;51777;53.570;9.984;2023-03-01T10:38:48;14.27;;;8.13;;
65189;SDS011;51777;53.570;9.984;2023-03-01T10:41:17;12.07;;;7.90;;
65189;SDS011;51777;53.570;9.984;2023-03-01T10:46:24;11.75;;;7.38;;
65189;SDS011;51777;53.570;9.984;2023-03-01T10:51:45;12.57;;;7.50;;
65189;SDS011;51777;53.570;9.984;2023-03-01T10:54:19;11.38;;;7.22;;
65189;SDS011;51777;53.570;9.984;2023-03-01T10:56:48;13.73;;;7.32;;
65189;SDS011;51777;53.570;9.984;2023-03-01T10:59:37;10.48;;;7.18;;
65189;SDS011;51777;53.570;9.984;2023-03-01T11:04:40;9.82;;;6.65;;
65189;SDS011;51777;53.570;9.984;2023-03-01T11:07:22;12.88;;;7.35;;
65189;SDS011;51777;53.570;9.984;2023-03-01T11:09:48;12.00;;;6.95;;
65189;SDS011;51777;53.570;9.984;2023-03-01T11:12:14;12.55;;;6.65;;
65189;SDS011;51777;53.570;9.984;2023-03-01T11:14:48;11.88;;;6.95;;
65189;SDS011;51777;53.570;9.984;2023-03-01T11:20:00;8.95;;;6.80;;
65189;SDS011;51777;53.570;9.984;2023-03-01T11:22:41;14.15;;;7.35;;
65189;SDS011;51777;53.570;9.984;2023-03-01T11:25:13;11.50;;;7.55;;
65189;SDS011;51777;53.570;9.984;2023-03-01T11:27:43;16.20;;;8.13;;
65189;SDS011;51777;53.570;9.984;2023-03-01T11:32:47;10.65;;;6.93;;
65189;SDS011;51777;53.570;9.984;2023-03-01T11:35:36;14.82;;;6.60;;
65189;SDS011;51777;53.570;9.984;2023-03-01T11:38:13;10.82;;;7.03;;
65189;SDS011;51777;53.570;9.984;2023-03-01T11:46:29;11.07;;;6.40;;
65189;SDS011;51777;53.570;9.984;2023-03-01T11:54:58;8.18;;;4.80;;
65189;SDS011;51777;53.570;9.984;2023-03-01T12:00:13;6.65;;;4.28;;
65189;SDS011;51777;53.570;9.984;2023-03-01T12:05:57;5.38;;;3.70;;
65189;SDS011;51777;53.570;9.984;2023-03-01T12:08:33;7.50;;;4.67;;
65189;SDS011;51777;53.570;9.984;2023-03-01T12:22:20;10.68;;;5.05;;
65189;SDS011;51777;53.570;9.984;2023-03-01T12:25:04;7.90;;;4.40;;
65189;SDS011;51777;53.570;9.984;2023-03-01T12:39:37;5.43;;;3.95;;
65189;SDS011;51777;53.570;9.984;2023-03-01T12:44:48;9.82;;;4.05;;
65189;SDS011;51777;53.570;9.984;2023-03-01T12:50:12;4.45;;;3.20;;
65189;SDS011;51777;53.570;9.984;2023-03-01T12:52:44;9.85;;;3.78;;
65189;SDS011;51777;53.570;9.984;2023-03-01T13:06:33;4.67;;;3.40;;
65189;SDS011;51777;53.570;9.984;2023-03-01T13:12:02;5.20;;;4.07;;
65189;SDS011;51777;53.570;9.984;2023-03-01T13:16:55;5.75;;;4.20;;
65189;SDS011;51777;53.570;9.984;2023-03-01T13:19:22;7.00;;;4.25;;
65189;SDS011;51777;53.570;9.984;2023-03-01T13:21:48;7.22;;;4.90;;
65189;SDS011;51777;53.570;9.984;2023-03-01T13:27:21;5.70;;;4.60;;
65189;SDS011;51777;53.570;9.984;2023-03-01T13:29:58;5.88;;;4.50;;
65189;SDS011;51777;53.570;9.984;2023-03-01T13:32:32;6.07;;;4.50;;
65189;SDS011;51777;53.570;9.984;2023-03-01T13:35:41;5.13;;;4.40;;
65189;SDS011;51777;53.570;9.984;2023-03-01T13:41:06;9.68;;;4.60;;
65189;SDS011;51777;53.570;9.984;2023-03-01T13:43:35;12.80;;;5.28;;
65189;SDS011;51777;53.570;9.984;2023-03-01T13:46:23;7.75;;;4.72;;
65189;SDS011;51777;53.570;9.984;2023-03-01T13:48:49;5.05;;;4.25;;
65189;SDS011;51777;53.570;9.984;2023-03-01T13:51:20;9.10;;;4.78;;
65189;SDS011;51777;53.570;9.984;2023-03-01T13:53:49;6.00;;;4.53;;
65189;SDS011;51777;53.570;9.984;2023-03-01T13:58:53;21.73;;;5.00;;
65189;SDS011;51777;53.570;9.984;2023-03-01T14:01:33;10.40;;;4.70;;
65189;SDS011;51777;53.570;9.984;2023-03-01T14:04:00;13.07;;;5.10;;
65189;SDS011;51777;53.570;9.984;2023-03-01T14:06:27;6.18;;;4.50;;
65189;SDS011;51777;53.570;9.984;2023-03-01T14:09:03;7.93;;;5.30;;
65189;SDS011;51777;53.570;9.984;2023-03-01T14:20:10;8.77;;;4.63;;
65189;SDS011;51777;53.570;9.984;2023-03-01T14:22:40;5.60;;;4.30;;
65189;SDS011;51777;53.570;9.984;2023-03-01T14:25:19;8.38;;;4.50;;
65189;SDS011;51777;53.570;9.984;2023-03-01T14:27:51;6.45;;;4.30;;
65189;SDS011;51777;53.570;9.984;2023-03-01T14:30:42;6.63;;;4.45;;
65189;SDS011;51777;53.570;9.984;2023-03-01T14:36:03;8.02;;;5.07;;
65189;SDS011;51777;53.570;9.984;2023-03-01T14:38:31;5.93;;;3.83;;
65189;SDS011;51777;53.570;9.984;2023-03-01T14:41:20;7.55;;;5.10;;
65189;SDS011;51777;53.570;9.984;2023-03-01T14:43:50;10.63;;;4.47;;
65189;SDS011;51777;53.570;9.984;2023-03-01T14:46:31;5.55;;;4.60;;
65189;SDS011;51777;53.570;9.984;2023-03-01T14:49:12;7.80;;;4.15;;
65189;SDS011;51777;53.570;9.984;2023-03-01T14:52:00;19.83;;;4.78;;
65189;SDS011;51777;53.570;9.984;2023-03-01T14:57:26;8.38;;;4.60;;
65189;SDS011;51777;53.570;9.984;2023-03-01T14:59:52;8.15;;;4.63;;
65189;SDS011;51777;53.570;9.984;2023-03-01T15:02:20;7.03;;;4.82;;
65189;SDS011;51777;53.570;9.984;2023-03-01T15:04:52;11.95;;;6.30;;
65189;SDS011;51777;53.570;9.984;2023-03-01T15:07:26;10.57;;;6.45;;
65189;SDS011;51777;53.570;9.984;2023-03-01T15:09:55;8.00;;;5.50;;
65189;SDS011;51777;53.570;9.984;2023-03-01T15:14:52;7.20;;;5.10;;
65189;SDS011;51777;53.570;9.984;2023-03-01T15:19:56;9.05;;;5.15;;
65189;SDS011;51777;53.570;9.984;2023-03-01T15:22:21;8.30;;;5.00;;
65189;SDS011;51777;53.570;9.984;2023-03-01T15:24:50;8.30;;;4.97;;
65189;SDS011;51777;53.570;9.984;2023-03-01T15:27:17;7.50;;;4.70;;
65189;SDS011;51777;53.570;9.984;2023-03-01T15:29:57;8.57;;;5.05;;
65189;SDS011;51777;53.570;9.984;2023-03-01T15:34:57;6.78;;;4.97;;
65189;SDS011;51777;53.570;9.984;2023-03-01T15:40:22;8.05;;;5.57;;
65189;SDS011;51777;53.570;9.984;2023-03-01T15:42:56;10.30;;;6.03;;
65189;SDS011;51777;53.570;9.984;2023-03-01T15:45:24;9.65;;;5.20;;
65189;SDS011;51777;53.570;9.984;2023-03-01T15:47:53;8.57;;;5.00;;
65189;SDS011;51777;53.570;9.984;2023-03-01T15:50:33;8.25;;;5.63;;
65189;SDS011;51777;53.570;9.984;2023-03-01T15:53:01;8.55;;;5.68;;
65189;SDS011;51777;53.570;9.984;2023-03-01T15:55:31;8.95;;;5.57;;
65189;SDS011;51777;53.570;9.984;2023-03-01T15:58:20;9.23;;;5.70;;
65189;SDS011;51777;53.570;9.984;2023-03-01T16:00:46;10.35;;;5.68;;
65189;SDS011;51777;53.570;9.984;2023-03-01T16:03:13;9.23;;;5.95;;
65189;SDS011;51777;53.570;9.984;2023-03-01T16:05:39;12.00;;;6.82;;
65189;SDS011;51777;53.570;9.984;2023-03-01T16:08:05;10.23;;;6.82;;
65189;SDS011;51777;53.570;9.984;2023-03-01T16:10:32;12.52;;;6.97;;
65189;SDS011;51777;53.570;9.984;2023-03-01T16:12:58;11.35;;;7.20;;
65189;SDS011;51777;53.570;9.984;2023-03-01T16:15:25;14.02;;;6.75;;
65189;SDS011;51777;53.570;9.984;2023-03-01T16:17:52;11.20;;;7.03;;
65189;SDS011;51777;53.570;9.984;2023-03-01T16:20:18;10.63;;;6.70;;
65189;SDS011;51777;53.570;9.984;2023-03-01T16:22:44;11.13;;;6.88;;
65189;SDS011;51777;53.570;9.984;2023-03-01T16:25:11;12.55;;;7.25;;
65189;SDS011;51777;53.570;9.984;2023-03-01T16:27:37;15.30;;;7.95;;
65189;SDS011;51777;53.570;9.984;2023-03-01T16:30:04;15.02;;;6.72;;
65189;SDS011;51777;53.570;9.984;2023-03-01T16:32:30;12.10;;;7.05;;
65189;SDS011;51777;53.570;9.984;2023-03-01T16:34:56;11.77;;;7.20;;
65189;SDS011;51777;53.570;9.984;2023-03-01T16:37:21;11.82;;;7.20;;
65189;SDS011;51777;53.570;9.984;2023-03-01T16:39:47;9.07;;;7.00;;
65189;SDS011;51777;53.570;9.984;2023-03-01T16:42:14;11.48;;;7.00;;
65189;SDS011;51777;53.570;9.984;2023-03-01T16:44:41;11.25;;;6.15;;
65189;SDS011;51777;53.570;9.984;2023-03-01T16:47:06;14.43;;;6.55;;
65189;SDS011;51777;53.570;9.984;2023-03-01T16:49:31;11.40;;;6.43;;
65189;SDS011;51777;53.570;9.984;2023-03-01T16:51:57;17.65;;;7.30;;
65189;SDS011;51777;53.570;9.984;2023-03-01T16:54:24;10.27;;;6.80;;
65189;SDS011;51777;53.570;9.984;2023-03-01T16:56:49;12.88;;;7.47;;
65189;SDS011;51777;53.570;9.984;2023-03-01T16:59:14;17.38;;;7.97;;
65189;SDS011;51777;53.570;9.984;2023-03-01T17:01:40;15.75;;;8.85;;
65189;SDS011;51777;53.570;9.984;2023-03-01T17:04:06;15.05;;;8.63;;
65189;SDS011;51777;53.570;9.984;2023-03-01T17:06:37;13.18;;;8.23;;